Aérodrome :
LOGIN :

S'inscrire | Disclaimer

   EN    FR    IT 

 










Légende :    VFR   VFR Marginal   IFR   IFR Intensif   IFR Très Intensif
Visi : 
Plafond : 
>= 8 km
>= 3000ft
5 à 8 km
1000 à 3000 ft
1500m à 5 km
500 à 1000 ft
800 à 1500m
200 à 500 ft
< 800m
< 200 ft
Symboles :   Orages  Brouillard  Fortes neiges  Fortes précipitations  Vent > 20 kt
SIGMETs :   Divers  Orages  Givrage  Turbulence  Onde Orograph.  Cendres Volcan.







- Altitude de l'aérodrome : 299 ft
- Code IATA : EDM
- Voir les cartes d'approche


LFRI - La Roche Sur Yon - Les Ajoncs

DERNIER METAR :
  • 212230Z AUTO VRB01KT CAVOK 16/15 Q1016

METARs EXPIRÉS :
  • 212200Z AUTO 00000KT CAVOK 16/15 Q1017
  • 212130Z AUTO 23002KT CAVOK 17/15 Q1017
  • 212100Z AUTO 24003KT CAVOK 18/15 Q1017 NOSIG
  • 212030Z AUTO 24003KT CAVOK 18/15 Q1016 NOSIG
  • 212000Z AUTO 22004KT CAVOK 19/15 Q1016 NOSIG

TAF TAF LFRI
Valide du 21 à 18h jusqu'au 22 à 18h UTC


211700Z 2118/2218 22010KT CAVOK
BECMG 2118/2121 VRB03KT
BECMG 2200/2203 3000 BR
TEMPO 2203/2207 1400 BR BKN003
PROB40
TEMPO 2203/2206 0200 FG VV///
BECMG 2207/2209 9999 NSW
BECMG 2212/2215 27010KT
Pas de NOTAMs connus pour ce terrain.



MET'MAP, la Météo Aéronautique d'un coup d'oeil ! - Copyright ORBIFLY Décembre 2007 - Disclaimer

ORBIFLY MET'MAP TEAM :

Programmation & Développement : Alexandra Zaïnal
Conception & Développement : Baudouin d'Aumeries
Co-Programmation & Développement : Marc-Olivier Méhu
Soutien technique & logistique : Manuel Goepfert

Contact : metmap@orbifly.com




SOURCES & CREDITS :

   NOAA